Time;durP1;ratioP1;P1;durP2;ratioP2;P2;SDS_P1;SDS_P2;PMS_P1;PMS_P2;Temp;Humidity;BMP_temperature;BMP_pressure;BME280_temperature;BME280_humidity;BME280_pressure;Samples;Min_cycle;Max_cycle;Signal;HPM_P1;HPM_P2
2024/02/28 00:00:13;;;;;;;34.08;13.27;;;;;;;;;;5096107;28;20065;-50
2024/02/28 00:02:39;;;;;;;27.38;13.10;;;;;;;;;;5101777;28;20034;-48
2024/02/28 00:05:05;;;;;;;31.25;13.00;;;;;;;;;;5108903;28;20425;-47
2024/02/28 00:07:31;;;;;;;33.50;12.43;;;;;;;;;;5106291;28;20110;-49
2024/02/28 00:09:57;;;;;;;33.15;14.25;;;;;;;;;;5091473;28;20035;-48
2024/02/28 00:12:27;;;;;;;33.47;12.90;;;;;;;;;;5105744;28;20026;-51
2024/02/28 00:14:53;;;;;;;30.75;12.90;;;;;;;;;;5112676;28;20471;-47
2024/02/28 00:17:19;;;;;;;36.83;13.68;;;;;;;;;;5092760;28;20594;-48
2024/02/28 00:19:45;;;;;;;34.42;13.23;;;;;;;;;;5097635;28;20031;-52
2024/02/28 00:22:11;;;;;;;31.85;12.65;;;;;;;;;;5108294;28;20042;-47
2024/02/28 00:24:37;;;;;;;33.78;13.65;;;;;;;;;;5105073;28;20084;-50
2024/02/28 00:27:03;;;;;;;28.00;12.20;;;;;;;;;;5112714;28;20024;-52
2024/02/28 00:29:29;;;;;;;31.05;12.20;;;;;;;;;;5093082;28;20107;-48
2024/02/28 00:31:55;;;;;;;33.60;13.70;;;;;;;;;;5090317;28;20042;-49
2024/02/28 00:34:21;;;;;;;33.95;12.90;;;;;;;;;;5096090;28;20024;-51
2024/02/28 00:36:47;;;;;;;32.33;12.93;;;;;;;;;;5104279;28;20028;-49
2024/02/28 00:39:13;;;;;;;33.28;13.38;;;;;;;;;;5093534;28;20021;-51
2024/02/28 00:41:39;;;;;;;34.00;12.20;;;;;;;;;;5091058;28;20028;-50
2024/02/28 00:44:05;;;;;;;28.85;12.27;;;;;;;;;;5113490;28;20028;-50
2024/02/28 00:46:31;;;;;;;32.30;12.68;;;;;;;;;;5112948;28;20030;-48
2024/02/28 00:48:57;;;;;;;36.13;12.93;;;;;;;;;;5103121;28;20028;-49
2024/02/28 00:51:22;;;;;;;32.65;12.77;;;;;;;;;;5085345;28;20031;-49
2024/02/28 00:53:48;;;;;;;29.88;12.50;;;;;;;;;;5095089;28;20036;-47
2024/02/28 00:56:14;;;;;;;35.65;13.45;;;;;;;;;;5109496;28;20027;-49
2024/02/28 00:58:40;;;;;;;31.05;13.00;;;;;;;;;;5097415;28;20103;-56
2024/02/28 01:01:07;;;;;;;31.60;12.57;;;;;;;;;;5096621;28;20035;-56
2024/02/28 01:03:33;;;;;;;27.05;11.88;;;;;;;;;;5098877;28;20028;-54
2024/02/28 01:06:00;;;;;;;29.10;11.10;;;;;;;;;;5110173;28;20036;-56
2024/02/28 01:08:27;;;;;;;30.33;11.57;;;;;;;;;;5098715;28;20016;-49
2024/02/28 01:10:53;;;;;;;28.30;11.73;;;;;;;;;;5102913;28;20035;-53
2024/02/28 01:13:19;;;;;;;29.80;12.65;;;;;;;;;;5112749;28;20023;-47
2024/02/28 01:15:45;;;;;;;28.13;11.85;;;;;;;;;;5106027;28;20078;-48
2024/02/28 01:18:11;;;;;;;27.25;10.93;;;;;;;;;;5112129;28;20454;-48
2024/02/28 01:20:37;;;;;;;25.25;10.63;;;;;;;;;;5098636;28;20069;-46
2024/02/28 01:23:03;;;;;;;26.13;10.48;;;;;;;;;;5101058;28;20506;-49
2024/02/28 01:25:29;;;;;;;25.23;10.98;;;;;;;;;;5106108;28;20056;-50
2024/02/28 01:27:57;;;;;;;29.83;10.95;;;;;;;;;;5102348;28;20051;-48
2024/02/28 01:30:23;;;;;;;27.10;11.40;;;;;;;;;;5102865;28;20063;-47
2024/02/28 01:32:49;;;;;;;23.38;9.73;;;;;;;;;;5103025;28;20062;-48
2024/02/28 01:35:15;;;;;;;29.65;10.15;;;;;;;;;;5103983;28;20031;-51
2024/02/28 01:37:41;;;;;;;27.20;11.63;;;;;;;;;;5102613;28;20025;-49
2024/02/28 01:40:08;;;;;;;29.95;11.27;;;;;;;;;;5086640;28;20028;-47
2024/02/28 01:42:33;;;;;;;27.95;10.75;;;;;;;;;;5104683;28;20031;-50
2024/02/28 01:44:59;;;;;;;25.00;10.48;;;;;;;;;;5113273;28;20383;-50
2024/02/28 01:47:25;;;;;;;26.60;10.70;;;;;;;;;;5101580;28;20031;-46
2024/02/28 01:49:54;;;;;;;26.52;10.43;;;;;;;;;;5090325;28;20037;-48
2024/02/28 01:52:20;;;;;;;25.95;10.20;;;;;;;;;;5088114;28;20078;-48
2024/02/28 01:54:46;;;;;;;23.60;10.45;;;;;;;;;;5069253;28;20503;-50
2024/02/28 01:57:12;;;;;;;25.50;10.20;;;;;;;;;;5090599;28;20024;-48
2024/02/28 01:59:38;;;;;;;21.52;9.55;;;;;;;;;;5097603;28;20036;-51
2024/02/28 02:02:04;;;;;;;23.45;10.88;;;;;;;;;;5102857;28;20443;-56
2024/02/28 02:04:30;;;;;;;26.80;11.15;;;;;;;;;;5095222;28;20032;-57
2024/02/28 02:06:58;;;;;;;24.33;9.05;;;;;;;;;;5098173;28;20039;-54
2024/02/28 02:09:24;;;;;;;28.75;11.35;;;;;;;;;;5094114;28;20381;-56
2024/02/28 02:11:50;;;;;;;26.80;9.95;;;;;;;;;;5096040;28;20036;-56
2024/02/28 02:14:16;;;;;;;23.40;10.57;;;;;;;;;;5093468;28;20032;-56
2024/02/28 02:16:42;;;;;;;23.35;10.23;;;;;;;;;;5102350;28;20028;-54
2024/02/28 02:19:10;;;;;;;28.42;10.77;;;;;;;;;;5109875;28;20034;-56
2024/02/28 02:21:38;;;;;;;27.42;10.77;;;;;;;;;;5105146;28;20060;-56
2024/02/28 02:24:04;;;;;;;26.38;10.80;;;;;;;;;;5086339;28;20028;-56
2024/02/28 02:26:30;;;;;;;21.50;9.90;;;;;;;;;;5091934;28;20036;-54
2024/02/28 02:28:56;;;;;;;25.48;10.93;;;;;;;;;;5106741;28;20034;-56
2024/02/28 02:31:22;;;;;;;26.45;10.80;;;;;;;;;;5085111;28;20542;-56
2024/02/28 02:33:48;;;;;;;24.35;10.77;;;;;;;;;;5083795;28;20467;-56
2024/02/28 02:36:14;;;;;;;27.52;9.70;;;;;;;;;;5099520;28;20031;-56
2024/02/28 02:38:40;;;;;;;27.70;11.48;;;;;;;;;;5083454;28;20032;-55
2024/02/28 02:41:06;;;;;;;28.67;11.00;;;;;;;;;;5099351;28;20020;-56
2024/02/28 02:43:32;;;;;;;27.77;10.45;;;;;;;;;;5112041;28;20029;-56
2024/02/28 02:45:58;;;;;;;24.58;10.43;;;;;;;;;;5110949;28;20097;-56
2024/02/28 02:48:24;;;;;;;31.88;11.85;;;;;;;;;;5094955;28;20035;-56
2024/02/28 02:50:50;;;;;;;24.13;11.15;;;;;;;;;;5089848;28;20032;-57
2024/02/28 02:53:16;;;;;;;30.35;11.43;;;;;;;;;;5111144;28;20566;-57
2024/02/28 02:55:41;;;;;;;23.90;10.15;;;;;;;;;;5112230;28;20028;-56
2024/02/28 02:58:07;;;;;;;27.52;11.88;;;;;;;;;;5109978;28;20167;-56
2024/02/28 03:00:33;;;;;;;32.78;10.55;;;;;;;;;;5096274;28;20031;-55
2024/02/28 03:02:59;;;;;;;25.50;11.10;;;;;;;;;;5077768;28;20031;-56
2024/02/28 03:05:25;;;;;;;25.25;10.70;;;;;;;;;;5096659;28;20031;-56
2024/02/28 03:07:51;;;;;;;26.92;9.95;;;;;;;;;;5112828;28;20030;-56
2024/02/28 03:10:17;;;;;;;24.92;10.88;;;;;;;;;;5089143;28;20040;-55
2024/02/28 03:12:43;;;;;;;31.33;11.38;;;;;;;;;;5091671;28;20028;-56
2024/02/28 03:15:09;;;;;;;29.50;10.90;;;;;;;;;;5084234;28;20027;-54
2024/02/28 03:17:35;;;;;;;26.10;10.82;;;;;;;;;;5100582;28;20047;-56
2024/02/28 03:20:01;;;;;;;22.02;10.70;;;;;;;;;;5090683;28;20073;-54
2024/02/28 03:22:27;;;;;;;24.63;10.27;;;;;;;;;;5087515;28;20025;-56
2024/02/28 03:24:53;;;;;;;22.67;10.18;;;;;;;;;;5111536;28;20019;-55
2024/02/28 03:27:19;;;;;;;28.40;10.93;;;;;;;;;;5110316;28;20035;-55
2024/02/28 03:29:45;;;;;;;22.83;10.32;;;;;;;;;;5100761;28;20494;-50
2024/02/28 03:32:11;;;;;;;22.90;10.43;;;;;;;;;;5110951;28;20444;-56
2024/02/28 03:34:37;;;;;;;23.58;9.48;;;;;;;;;;5109456;28;20116;-55
2024/02/28 03:37:03;;;;;;;22.50;9.93;;;;;;;;;;5103419;28;20020;-56
2024/02/28 03:39:29;;;;;;;21.45;9.35;;;;;;;;;;5084988;28;20070;-54
2024/02/28 03:41:56;;;;;;;21.30;9.27;;;;;;;;;;5083008;28;20436;-55
2024/02/28 03:44:22;;;;;;;19.67;8.90;;;;;;;;;;5099778;28;20032;-55
2024/02/28 03:46:48;;;;;;;21.17;9.15;;;;;;;;;;5094598;28;20036;-56
2024/02/28 03:49:14;;;;;;;17.80;8.70;;;;;;;;;;5092607;28;20028;-57
2024/02/28 03:51:43;;;;;;;17.35;8.07;;;;;;;;;;5089148;28;20066;-57
2024/02/28 03:54:09;;;;;;;20.52;9.10;;;;;;;;;;5110325;28;20031;-53
2024/02/28 03:56:35;;;;;;;17.58;8.85;;;;;;;;;;5081494;28;20099;-56
2024/02/28 03:59:01;;;;;;;18.42;7.88;;;;;;;;;;5087450;28;20104;-55
2024/02/28 04:01:27;;;;;;;21.90;8.60;;;;;;;;;;5106313;28;20028;-56
2024/02/28 04:03:53;;;;;;;20.45;8.75;;;;;;;;;;5101364;28;20074;-56
2024/02/28 04:06:19;;;;;;;18.00;8.93;;;;;;;;;;5099651;28;20024;-57
2024/02/28 04:08:45;;;;;;;17.40;8.65;;;;;;;;;;5085544;28;20029;-56
2024/02/28 04:11:11;;;;;;;21.17;8.52;;;;;;;;;;5091251;28;20384;-55
2024/02/28 04:13:37;;;;;;;17.48;8.10;;;;;;;;;;5106921;28;20032;-56
2024/02/28 04:16:03;;;;;;;16.98;8.07;;;;;;;;;;5094086;28;20115;-55
2024/02/28 04:18:30;;;;;;;19.98;9.25;;;;;;;;;;5095284;28;20040;-55
2024/02/28 04:20:56;;;;;;;22.85;8.88;;;;;;;;;;5087186;28;20024;-56
2024/02/28 04:23:22;;;;;;;15.10;8.02;;;;;;;;;;5093891;28;20032;-55
2024/02/28 04:25:48;;;;;;;19.20;9.00;;;;;;;;;;5094916;28;20090;-54
2024/02/28 04:28:14;;;;;;;15.85;8.05;;;;;;;;;;5088807;28;20020;-56
2024/02/28 04:30:40;;;;;;;17.30;7.95;;;;;;;;;;5080680;28;20043;-56
2024/02/28 04:33:06;;;;;;;17.92;8.52;;;;;;;;;;5108080;28;20027;-56
2024/02/28 04:35:32;;;;;;;17.88;8.45;;;;;;;;;;5110620;28;20028;-55
2024/02/28 04:37:58;;;;;;;20.20;9.00;;;;;;;;;;5100621;28;20029;-56
2024/02/28 04:40:24;;;;;;;18.83;8.57;;;;;;;;;;5094023;28;20024;-56
2024/02/28 04:42:50;;;;;;;16.73;8.52;;;;;;;;;;5094134;28;20035;-56
2024/02/28 04:45:16;;;;;;;17.30;8.38;;;;;;;;;;5097688;28;20517;-56
2024/02/28 04:47:42;;;;;;;16.45;8.00;;;;;;;;;;5102754;28;20383;-58
2024/02/28 04:50:08;;;;;;;15.85;8.02;;;;;;;;;;5080599;28;20032;-56
2024/02/28 04:52:34;;;;;;;15.05;7.72;;;;;;;;;;5090734;28;20123;-57
2024/02/28 04:55:00;;;;;;;15.98;8.40;;;;;;;;;;5090549;28;20481;-56
2024/02/28 04:57:26;;;;;;;18.17;7.93;;;;;;;;;;5098018;28;20024;-56
2024/02/28 04:59:52;;;;;;;16.85;7.80;;;;;;;;;;5108865;28;20027;-56
2024/02/28 05:02:18;;;;;;;16.60;7.65;;;;;;;;;;5098840;28;20016;-55
2024/02/28 05:04:44;;;;;;;14.02;7.28;;;;;;;;;;5087905;28;20031;-56
2024/02/28 05:07:10;;;;;;;18.10;7.72;;;;;;;;;;5087695;28;20024;-56
2024/02/28 05:09:36;;;;;;;14.18;7.15;;;;;;;;;;5095232;28;20027;-56
2024/02/28 05:12:02;;;;;;;16.35;7.30;;;;;;;;;;5092340;28;20020;-56
2024/02/28 05:14:28;;;;;;;13.35;6.22;;;;;;;;;;5096236;28;20032;-56
2024/02/28 05:16:54;;;;;;;23.08;15.50;;;;;;;;;;5083391;28;20064;-57
2024/02/28 05:19:20;;;;;;;12.73;7.90;;;;;;;;;;5091270;28;20036;-55
2024/02/28 05:21:48;;;;;;;10.65;5.75;;;;;;;;;;5090916;28;20016;-56
2024/02/28 05:24:14;;;;;;;29.75;18.13;;;;;;;;;;5093057;28;20149;-56
2024/02/28 05:26:40;;;;;;;14.27;6.43;;;;;;;;;;5084359;28;20039;-48
2024/02/28 05:29:06;;;;;;;10.23;5.35;;;;;;;;;;5092088;28;20101;-51
2024/02/28 05:31:32;;;;;;;11.20;5.30;;;;;;;;;;5098012;28;20039;-56
2024/02/28 05:33:59;;;;;;;7.55;4.35;;;;;;;;;;5094498;28;20032;-56
2024/02/28 05:36:25;;;;;;;8.43;4.15;;;;;;;;;;5092407;28;20024;-56
2024/02/28 05:38:52;;;;;;;8.70;4.40;;;;;;;;;;5092197;28;20028;-55
2024/02/28 05:41:18;;;;;;;11.38;4.43;;;;;;;;;;5107224;28;20033;-56
2024/02/28 05:43:45;;;;;;;11.88;5.43;;;;;;;;;;5094758;28;20038;-56
2024/02/28 05:46:11;;;;;;;9.95;5.20;;;;;;;;;;5091470;28;20488;-55
2024/02/28 05:48:37;;;;;;;10.43;5.05;;;;;;;;;;5096702;28;20035;-56
2024/02/28 05:51:04;;;;;;;11.57;5.65;;;;;;;;;;5094852;28;20028;-57
2024/02/28 05:53:37;;;;;;;13.35;6.30;;;;;;;;;;5097326;28;20269;-55
2024/02/28 05:56:04;;;;;;;15.40;7.00;;;;;;;;;;5097921;28;20024;-56
2024/02/28 05:58:30;;;;;;;15.77;7.15;;;;;;;;;;5094931;28;20023;-52
2024/02/28 06:00:56;;;;;;;14.57;7.68;;;;;;;;;;5093642;28;20028;-56
2024/02/28 06:03:22;;;;;;;15.43;7.40;;;;;;;;;;5091317;28;20081;-56
2024/02/28 06:05:48;;;;;;;18.60;7.88;;;;;;;;;;5089556;28;20441;-55
2024/02/28 06:08:15;;;;;;;15.98;7.63;;;;;;;;;;5095054;28;20035;-55
2024/02/28 06:10:42;;;;;;;18.67;7.90;;;;;;;;;;5090149;28;20039;-55
2024/02/28 06:13:08;;;;;;;15.90;7.57;;;;;;;;;;5095665;28;20279;-55
2024/02/28 06:15:34;;;;;;;14.57;7.47;;;;;;;;;;5094110;28;20023;-55
2024/02/28 06:18:00;;;;;;;15.80;6.50;;;;;;;;;;5092670;28;20044;-56
2024/02/28 06:20:27;;;;;;;13.52;6.95;;;;;;;;;;5092159;28;20020;-56
2024/02/28 06:22:53;;;;;;;13.57;6.25;;;;;;;;;;5093496;28;20746;-55
2024/02/28 06:25:22;;;;;;;16.48;6.88;;;;;;;;;;5093191;28;20072;-56
2024/02/28 06:27:48;;;;;;;13.18;6.72;;;;;;;;;;5093120;28;20058;-55
2024/02/28 06:30:14;;;;;;;15.73;7.80;;;;;;;;;;5089469;28;20028;-54
2024/02/28 06:32:40;;;;;;;14.15;6.80;;;;;;;;;;5093065;28;20024;-56
2024/02/28 06:35:07;;;;;;;14.00;6.95;;;;;;;;;;5091214;28;20484;-56
2024/02/28 06:37:33;;;;;;;15.85;6.82;;;;;;;;;;5096033;28;20031;-56
2024/02/28 06:40:00;;;;;;;16.45;7.53;;;;;;;;;;5093910;28;20099;-55
2024/02/28 06:42:26;;;;;;;16.35;7.65;;;;;;;;;;5087074;28;20021;-56
2024/02/28 06:44:51;;;;;;;17.45;7.95;;;;;;;;;;5097685;28;20087;-55
2024/02/28 06:47:21;;;;;;;16.13;8.57;;;;;;;;;;5100476;28;20099;-55
2024/02/28 06:49:47;;;;;;;18.70;8.55;;;;;;;;;;5095849;28;20076;-56
2024/02/28 06:52:13;;;;;;;16.05;7.88;;;;;;;;;;5100427;28;20068;-55
2024/02/28 06:54:38;;;;;;;16.70;8.25;;;;;;;;;;5092217;28;20028;-55
2024/02/28 06:57:04;;;;;;;17.48;7.50;;;;;;;;;;5098609;28;20032;-55
2024/02/28 06:59:31;;;;;;;18.85;8.77;;;;;;;;;;5097779;28;20491;-56
2024/02/28 07:01:57;;;;;;;17.77;8.07;;;;;;;;;;5106490;28;20015;-55
2024/02/28 07:04:23;;;;;;;19.48;8.68;;;;;;;;;;5102730;28;20068;-56
2024/02/28 07:06:49;;;;;;;14.77;7.97;;;;;;;;;;5095215;28;20027;-55
2024/02/28 07:09:15;;;;;;;14.90;7.80;;;;;;;;;;5072067;28;20032;-53
2024/02/28 07:11:41;;;;;;;21.17;9.43;;;;;;;;;;5090252;28;20028;-56
2024/02/28 07:14:07;;;;;;;17.02;8.68;;;;;;;;;;5090741;28;20024;-55
2024/02/28 07:16:34;;;;;;;17.92;8.40;;;;;;;;;;5091092;28;20087;-55
2024/02/28 07:19:03;;;;;;;17.88;8.05;;;;;;;;;;5100388;28;20065;-55
2024/02/28 07:21:30;;;;;;;16.85;8.43;;;;;;;;;;5097717;28;20110;-56
2024/02/28 07:23:56;;;;;;;19.30;8.32;;;;;;;;;;5092336;28;20022;-56
2024/02/28 07:26:22;;;;;;;17.05;7.97;;;;;;;;;;5085017;28;20024;-55
2024/02/28 07:28:49;;;;;;;17.55;8.13;;;;;;;;;;5090969;28;20024;-56
2024/02/28 07:31:18;;;;;;;16.73;8.07;;;;;;;;;;5091031;28;20071;-56
2024/02/28 07:33:45;;;;;;;16.42;8.88;;;;;;;;;;5087805;28;20020;-56
2024/02/28 07:36:11;;;;;;;17.20;8.15;;;;;;;;;;5090953;28;20444;-56
2024/02/28 07:38:37;;;;;;;15.93;7.70;;;;;;;;;;5090799;28;20047;-55
2024/02/28 07:41:03;;;;;;;18.83;8.65;;;;;;;;;;5090912;28;20450;-56
2024/02/28 07:43:32;;;;;;;19.67;7.88;;;;;;;;;;5090023;28;20023;-55
2024/02/28 07:45:58;;;;;;;13.07;7.47;;;;;;;;;;5090775;28;20055;-55
2024/02/28 07:48:24;;;;;;;18.67;8.05;;;;;;;;;;5103132;28;20028;-50
2024/02/28 07:50:50;;;;;;;17.23;8.05;;;;;;;;;;5090900;28;20028;-47
2024/02/28 07:53:17;;;;;;;13.80;7.25;;;;;;;;;;5093462;28;20444;-49
2024/02/28 07:55:44;;;;;;;13.52;7.30;;;;;;;;;;5099319;28;20051;-47
2024/02/28 07:58:10;;;;;;;16.75;7.93;;;;;;;;;;5109137;28;20375;-51
2024/02/28 08:00:37;;;;;;;15.73;6.88;;;;;;;;;;5102759;28;20424;-48
2024/02/28 08:03:03;;;;;;;13.57;7.07;;;;;;;;;;5094106;28;20021;-51
2024/02/28 08:05:29;;;;;;;15.25;7.45;;;;;;;;;;5103271;28;20039;-50
2024/02/28 08:07:55;;;;;;;16.73;7.90;;;;;;;;;;5096413;28;20028;-50
2024/02/28 08:10:21;;;;;;;13.10;6.55;;;;;;;;;;5094471;28;20035;-49
2024/02/28 08:12:46;;;;;;;15.40;7.82;;;;;;;;;;5094575;28;20028;-52
2024/02/28 08:15:12;;;;;;;15.25;8.15;;;;;;;;;;5094147;28;20035;-54
2024/02/28 08:17:38;;;;;;;19.10;7.85;;;;;;;;;;5094316;28;20491;-48
2024/02/28 08:20:05;;;;;;;15.50;7.32;;;;;;;;;;5094434;28;20020;-49
2024/02/28 08:22:32;;;;;;;18.70;8.95;;;;;;;;;;5093777;28;20349;-49
2024/02/28 08:24:59;;;;;;;17.77;8.77;;;;;;;;;;5094449;28;20052;-46
2024/02/28 08:27:25;;;;;;;19.08;8.18;;;;;;;;;;5098875;28;20496;-49
2024/02/28 08:29:51;;;;;;;19.17;9.52;;;;;;;;;;5102908;28;20028;-48
2024/02/28 08:32:18;;;;;;;20.00;8.93;;;;;;;;;;5093895;28;20027;-48
2024/02/28 08:34:46;;;;;;;21.10;9.30;;;;;;;;;;5094377;28;20028;-47
2024/02/28 08:37:12;;;;;;;19.25;8.80;;;;;;;;;;5094084;28;20090;-46
2024/02/28 08:39:38;;;;;;;18.95;8.85;;;;;;;;;;5094391;28;20086;-47
2024/02/28 08:42:04;;;;;;;25.42;10.25;;;;;;;;;;5093803;28;20032;-50
2024/02/28 08:44:30;;;;;;;17.98;8.98;;;;;;;;;;5090801;28;20032;-51
2024/02/28 08:46:56;;;;;;;21.15;9.20;;;;;;;;;;5093609;28;20477;-48
2024/02/28 08:49:22;;;;;;;20.33;9.35;;;;;;;;;;5093750;28;20356;-47
2024/02/28 08:51:48;;;;;;;24.10;10.07;;;;;;;;;;5092647;28;20267;-50
2024/02/28 08:54:14;;;;;;;22.40;10.13;;;;;;;;;;5093268;28;20048;-47
2024/02/28 08:56:40;;;;;;;25.10;10.88;;;;;;;;;;5094730;28;20024;-56
2024/02/28 08:59:06;;;;;;;23.95;10.48;;;;;;;;;;5076422;28;20082;-56
2024/02/28 09:01:34;;;;;;;26.33;10.25;;;;;;;;;;5092967;28;20031;-54
2024/02/28 09:04:00;;;;;;;26.15;10.85;;;;;;;;;;5093357;28;20020;-54
2024/02/28 09:06:26;;;;;;;22.08;11.60;;;;;;;;;;5074914;28;20028;-56
2024/02/28 09:08:52;;;;;;;19.45;9.07;;;;;;;;;;5093204;28;20030;-56
2024/02/28 09:11:18;;;;;;;24.02;10.55;;;;;;;;;;5092865;28;20387;-53
2024/02/28 09:13:44;;;;;;;23.63;11.30;;;;;;;;;;5092812;28;20442;-55
2024/02/28 09:16:10;;;;;;;19.40;9.60;;;;;;;;;;5097421;28;20429;-55
2024/02/28 09:18:36;;;;;;;22.00;10.30;;;;;;;;;;5093370;28;20142;-54
2024/02/28 09:21:02;;;;;;;19.50;9.82;;;;;;;;;;5085333;28;20028;-56
2024/02/28 09:23:28;;;;;;;26.08;10.73;;;;;;;;;;5072464;28;20035;-55
2024/02/28 09:25:56;;;;;;;21.08;9.82;;;;;;;;;;5072424;28;20040;-53
2024/02/28 09:28:22;;;;;;;20.73;10.02;;;;;;;;;;5072466;28;20033;-57
2024/02/28 09:30:50;;;;;;;22.88;10.68;;;;;;;;;;5072553;28;20536;-56
2024/02/28 09:33:17;;;;;;;22.77;11.10;;;;;;;;;;5072286;28;20036;-56
2024/02/28 09:35:43;;;;;;;19.50;10.60;;;;;;;;;;5070607;28;20036;-57
2024/02/28 09:38:09;;;;;;;21.85;10.50;;;;;;;;;;5072255;28;20017;-59
2024/02/28 09:40:35;;;;;;;24.13;10.50;;;;;;;;;;5072031;28;20021;-55
2024/02/28 09:43:03;;;;;;;25.25;11.27;;;;;;;;;;5072879;28;20404;-54
2024/02/28 09:45:30;;;;;;;23.05;11.00;;;;;;;;;;5067793;28;20029;-55
2024/02/28 09:47:57;;;;;;;24.65;11.32;;;;;;;;;;5081465;28;20531;-55
2024/02/28 09:50:23;;;;;;;26.02;10.75;;;;;;;;;;5065558;28;20542;-56
2024/02/28 09:52:49;;;;;;;26.08;11.68;;;;;;;;;;5071917;28;20040;-55
2024/02/28 09:55:15;;;;;;;22.92;9.65;;;;;;;;;;5071741;28;20036;-54
2024/02/28 09:57:43;;;;;;;22.83;10.88;;;;;;;;;;5076907;28;20601;-56
2024/02/28 10:00:10;;;;;;;23.80;11.52;;;;;;;;;;5085830;28;20024;-56
2024/02/28 10:02:37;;;;;;;25.02;10.00;;;;;;;;;;5069505;28;20033;-55
2024/02/28 10:05:04;;;;;;;24.77;11.32;;;;;;;;;;5076102;28;20035;-55
2024/02/28 10:07:31;;;;;;;29.00;11.68;;;;;;;;;;5069191;28;20048;-48
2024/02/28 10:09:57;;;;;;;22.30;10.70;;;;;;;;;;5072043;28;20476;-50
2024/02/28 10:12:23;;;;;;;22.38;10.90;;;;;;;;;;5075686;28;20035;-48
2024/02/28 10:14:52;;;;;;;22.65;10.40;;;;;;;;;;5073076;28;20068;-49
2024/02/28 10:17:18;;;;;;;24.65;10.60;;;;;;;;;;5074771;28;20040;-46
2024/02/28 10:19:44;;;;;;;25.05;11.35;;;;;;;;;;5082885;28;20028;-49
2024/02/28 10:22:10;;;;;;;20.92;9.93;;;;;;;;;;5091016;28;20020;-48
2024/02/28 10:24:37;;;;;;;21.23;10.63;;;;;;;;;;5063392;28;20028;-49
2024/02/28 10:27:03;;;;;;;21.20;9.95;;;;;;;;;;5065302;28;20480;-49
2024/02/28 10:29:32;;;;;;;20.27;9.93;;;;;;;;;;5090020;28;20032;-49
2024/02/28 10:31:58;;;;;;;20.50;9.10;;;;;;;;;;5085252;28;20024;-48
2024/02/28 10:34:24;;;;;;;21.80;9.82;;;;;;;;;;5091261;28;20063;-50
2024/02/28 10:36:51;;;;;;;24.33;10.43;;;;;;;;;;5091022;28;20383;-48
2024/02/28 10:39:16;;;;;;;20.20;9.13;;;;;;;;;;5081007;28;20031;-49
2024/02/28 10:41:43;;;;;;;21.35;10.20;;;;;;;;;;5087845;28;20361;-48
2024/02/28 10:44:12;;;;;;;18.38;8.98;;;;;;;;;;5073657;28;20099;-50
2024/02/28 10:46:39;;;;;;;20.40;9.23;;;;;;;;;;5073131;28;20036;-47
2024/02/28 10:49:06;;;;;;;19.65;9.00;;;;;;;;;;5070472;28;20016;-50
2024/02/28 10:51:36;;;;;;;20.08;9.38;;;;;;;;;;5079289;28;20009;-50
2024/02/28 10:54:12;;;;;;;22.05;9.32;;;;;;;;;;5080840;28;20025;-48
2024/02/28 10:56:41;;;;;;;20.85;9.48;;;;;;;;;;5070706;28;20032;-48
2024/02/28 10:59:08;;;;;;;20.23;9.70;;;;;;;;;;5071228;28;20020;-50
2024/02/28 11:01:35;;;;;;;19.38;8.55;;;;;;;;;;5079000;28;20032;-47
2024/02/28 11:04:02;;;;;;;20.45;9.90;;;;;;;;;;5090698;28;20107;-48
2024/02/28 11:06:28;;;;;;;18.83;9.80;;;;;;;;;;5077055;28;20029;-48
2024/02/28 11:08:54;;;;;;;21.13;8.90;;;;;;;;;;5081081;28;20027;-46
2024/02/28 11:11:20;;;;;;;18.92;9.57;;;;;;;;;;5081802;28;20502;-46
2024/02/28 11:13:56;;;;;;;22.27;9.75;;;;;;;;;;5071212;28;20021;-47
2024/02/28 11:16:32;;;;;;;17.70;9.15;;;;;;;;;;5074841;28;20035;-50
2024/02/28 11:18:58;;;;;;;18.00;9.00;;;;;;;;;;5081628;28;20032;-56
2024/02/28 11:21:26;;;;;;;17.17;8.52;;;;;;;;;;5083931;28;20702;-56
2024/02/28 11:23:52;;;;;;;19.10;9.05;;;;;;;;;;5079562;28;20480;-54
2024/02/28 11:26:18;;;;;;;18.27;8.57;;;;;;;;;;5076654;28;20039;-55
2024/02/28 11:28:44;;;;;;;16.63;9.30;;;;;;;;;;5090936;28;20341;-56
2024/02/28 11:31:10;;;;;;;20.15;9.20;;;;;;;;;;5091561;28;20036;-56
2024/02/28 11:33:38;;;;;;;15.63;8.63;;;;;;;;;;5079050;28;20047;-54
2024/02/28 11:36:04;;;;;;;18.33;8.85;;;;;;;;;;5081225;28;20032;-56
2024/02/28 11:38:30;;;;;;;18.60;8.65;;;;;;;;;;5088086;28;20212;-56
2024/02/28 11:40:56;;;;;;;16.88;8.75;;;;;;;;;;5076495;28;20024;-56
2024/02/28 11:43:22;;;;;;;19.65;8.48;;;;;;;;;;5076699;28;20028;-56
2024/02/28 11:45:48;;;;;;;16.50;8.25;;;;;;;;;;5083592;28;20036;-56
2024/02/28 11:48:14;;;;;;;18.02;8.25;;;;;;;;;;5080943;28;20084;-56
2024/02/28 11:50:40;;;;;;;21.38;9.15;;;;;;;;;;5075716;28;20020;-55
2024/02/28 11:53:07;;;;;;;16.45;8.07;;;;;;;;;;5085453;28;20115;-58
2024/02/28 11:55:33;;;;;;;21.33;9.68;;;;;;;;;;5079461;28;20071;-56
2024/02/28 11:58:00;;;;;;;20.65;9.10;;;;;;;;;;5083659;28;20493;-56
2024/02/28 12:00:26;;;;;;;17.33;8.80;;;;;;;;;;5089799;28;20386;-56
2024/02/28 12:02:53;;;;;;;18.95;8.52;;;;;;;;;;5082899;28;20051;-56
2024/02/28 12:05:20;;;;;;;17.42;8.05;;;;;;;;;;5094325;28;20044;-56
2024/02/28 12:07:46;;;;;;;17.45;8.43;;;;;;;;;;5077247;28;20044;-54
2024/02/28 12:10:12;;;;;;;18.05;8.77;;;;;;;;;;5070988;28;20099;-56
2024/02/28 12:12:40;;;;;;;17.13;8.80;;;;;;;;;;5070149;28;20028;-56
2024/02/28 12:15:07;;;;;;;15.98;7.85;;;;;;;;;;5084064;28;20119;-54
2024/02/28 12:17:33;;;;;;;17.08;7.97;;;;;;;;;;5085942;28;20428;-56
2024/02/28 12:20:02;;;;;;;15.57;7.90;;;;;;;;;;5097667;28;20092;-56
2024/02/28 12:22:28;;;;;;;17.85;7.78;;;;;;;;;;5096130;28;20044;-57
2024/02/28 12:24:54;;;;;;;15.52;7.72;;;;;;;;;;5098484;28;20089;-56
2024/02/28 12:27:20;;;;;;;15.90;7.80;;;;;;;;;;5096339;28;20791;-55
2024/02/28 12:29:46;;;;;;;14.75;7.53;;;;;;;;;;5102166;28;20115;-56
2024/02/28 12:32:12;;;;;;;19.10;7.80;;;;;;;;;;5096184;28;20028;-56
2024/02/28 12:34:38;;;;;;;18.92;7.90;;;;;;;;;;5090062;28;20115;-56
2024/02/28 12:37:05;;;;;;;15.05;7.55;;;;;;;;;;5093800;28;20510;-56
2024/02/28 12:39:34;;;;;;;14.65;6.80;;;;;;;;;;5086761;28;20113;-56
2024/02/28 12:42:00;;;;;;;18.08;7.97;;;;;;;;;;5085767;28;20028;-54
2024/02/28 12:44:26;;;;;;;13.73;6.40;;;;;;;;;;5091643;28;20070;-55
2024/02/28 12:46:52;;;;;;;12.43;6.57;;;;;;;;;;5085517;28;20031;-55
2024/02/28 12:49:18;;;;;;;17.23;7.40;;;;;;;;;;5094480;28;20459;-56
2024/02/28 12:51:45;;;;;;;12.40;6.25;;;;;;;;;;5092153;28;20395;-56
2024/02/28 12:54:12;;;;;;;13.88;7.20;;;;;;;;;;5092973;28;20035;-56
2024/02/28 12:56:38;;;;;;;14.77;7.18;;;;;;;;;;5091572;28;20387;-56
2024/02/28 12:59:05;;;;;;;13.25;6.75;;;;;;;;;;5093073;28;20422;-55
2024/02/28 13:01:31;;;;;;;13.18;6.13;;;;;;;;;;5093205;28;20050;-56
2024/02/28 13:03:57;;;;;;;14.88;6.90;;;;;;;;;;5092481;28;20020;-56
2024/02/28 13:06:23;;;;;;;15.35;7.35;;;;;;;;;;5092532;28;20102;-55
2024/02/28 13:08:52;;;;;;;10.18;5.60;;;;;;;;;;5092497;28;20169;-56
2024/02/28 13:11:25;;;;;;;12.80;6.03;;;;;;;;;;5091439;28;20024;-56
2024/02/28 13:13:51;;;;;;;12.55;6.35;;;;;;;;;;5085978;28;20028;-56
2024/02/28 13:16:18;;;;;;;12.63;6.47;;;;;;;;;;5095668;28;20069;-56
2024/02/28 13:18:43;;;;;;;10.05;5.72;;;;;;;;;;5106914;28;20122;-56
2024/02/28 13:21:10;;;;;;;10.93;5.30;;;;;;;;;;5102034;28;20199;-56
2024/02/28 13:23:37;;;;;;;10.25;5.95;;;;;;;;;;5098716;28;20032;-57
2024/02/28 13:26:03;;;;;;;12.13;5.07;;;;;;;;;;5091788;28;20101;-57
2024/02/28 13:28:29;;;;;;;8.57;5.18;;;;;;;;;;5088839;28;20040;-56
2024/02/28 13:31:04;;;;;;;10.45;6.00;;;;;;;;;;5092904;28;20076;-56
2024/02/28 13:33:30;;;;;;;8.80;4.80;;;;;;;;;;5097912;28;20039;-57
2024/02/28 13:35:56;;;;;;;11.05;6.10;;;;;;;;;;5087487;28;20061;-57
2024/02/28 13:38:22;;;;;;;7.97;4.28;;;;;;;;;;5097378;28;20028;-57
2024/02/28 13:40:49;;;;;;;8.50;5.20;;;;;;;;;;5092575;28;20085;-57
2024/02/28 13:43:15;;;;;;;9.13;4.65;;;;;;;;;;5092088;28;20061;-58
2024/02/28 13:45:46;;;;;;;8.13;4.80;;;;;;;;;;5090833;28;20020;-57
2024/02/28 13:48:16;;;;;;;7.78;4.90;;;;;;;;;;5092491;28;20038;-58
2024/02/28 13:50:42;;;;;;;8.02;4.65;;;;;;;;;;5092594;28;20167;-58
2024/02/28 13:53:08;;;;;;;7.03;4.30;;;;;;;;;;5091612;28;20502;-58
2024/02/28 13:55:34;;;;;;;7.75;4.95;;;;;;;;;;5091320;28;20028;-56
2024/02/28 13:58:00;;;;;;;7.70;4.45;;;;;;;;;;5091964;28;20111;-56
2024/02/28 14:00:26;;;;;;;7.13;4.20;;;;;;;;;;5092010;28;20032;-58
2024/02/28 14:02:52;;;;;;;6.93;4.15;;;;;;;;;;5091285;28;20486;-58
2024/02/28 14:05:18;;;;;;;7.07;4.68;;;;;;;;;;5092193;28;20447;-58
2024/02/28 14:07:44;;;;;;;6.68;4.38;;;;;;;;;;5091976;28;20070;-58
2024/02/28 14:10:11;;;;;;;7.05;4.25;;;;;;;;;;5091594;28;20411;-58
2024/02/28 14:12:37;;;;;;;8.18;4.55;;;;;;;;;;5080221;28;20109;-57
2024/02/28 14:15:04;;;;;;;7.38;4.50;;;;;;;;;;5091376;28;20028;-57
2024/02/28 14:17:30;;;;;;;8.50;4.80;;;;;;;;;;5086308;28;20411;-58
2024/02/28 14:19:56;;;;;;;7.45;4.88;;;;;;;;;;5071176;28;20035;-57